Arboles, Colorado
Current Conditions -  °F | °C
As of 2:53 PM on Monday 24 Nov 2014 (Local Time) from KDRO Reporting Station
Few Clouds Few Clouds  
Wind Chill: 22°   Ceiling: Unl
Heat Index: 35°   Visibility: 10mi
Dew Point: 12°   Wind: 26mph
Humidity: 39%   Direction: 350°N
Pressure: 30.11"   Gusts: 37mph
Location:  37.03°N, 107.42°W
Report Text: KDRO 242153Z AUTO 35023G32KT 10SM FEW070 02/M11 A3011 RMK AO2 PK WND 36032/2149 PRESRR SLP229 T00171111
Loading
Personal Weather Stations






























Interactive Weather Map New forecast layout! Learn more

10-Day Weather Forecast

Advertisements
Track Severe Weather on mobile